sensor_id;sensor_type;location;lat;lon;timestamp;P1;durP1;ratioP1;P2;durP2;ratioP2
1296;SDS011;641;48.492;9.184;2023-02-04T00:00:21;4.90;;;0.50;;
1296;SDS011;641;48.492;9.184;2023-02-04T00:02:47;4.70;;;0.40;;
1296;SDS011;641;48.492;9.184;2023-02-04T00:05:15;5.10;;;0.80;;
1296;SDS011;641;48.492;9.184;2023-02-04T00:07:42;5.57;;;0.77;;
1296;SDS011;641;48.492;9.184;2023-02-04T00:10:08;4.87;;;0.50;;
1296;SDS011;641;48.492;9.184;2023-02-04T00:12:34;5.37;;;0.60;;
1296;SDS011;641;48.492;9.184;2023-02-04T00:15:00;5.10;;;0.90;;
1296;SDS011;641;48.492;9.184;2023-02-04T00:17:25;5.20;;;0.60;;
1296;SDS011;641;48.492;9.184;2023-02-04T00:19:51;5.00;;;0.57;;
1296;SDS011;641;48.492;9.184;2023-02-04T00:22:17;4.80;;;0.57;;
1296;SDS011;641;48.492;9.184;2023-02-04T00:24:44;5.00;;;0.60;;
1296;SDS011;641;48.492;9.184;2023-02-04T00:27:13;5.10;;;0.70;;
1296;SDS011;641;48.492;9.184;2023-02-04T00:29:39;4.90;;;0.50;;
1296;SDS011;641;48.492;9.184;2023-02-04T00:32:05;5.40;;;0.73;;
1296;SDS011;641;48.492;9.184;2023-02-04T00:34:30;5.30;;;0.63;;
1296;SDS011;641;48.492;9.184;2023-02-04T00:36:56;5.50;;;0.80;;
1296;SDS011;641;48.492;9.184;2023-02-04T00:39:22;5.10;;;0.70;;
1296;SDS011;641;48.492;9.184;2023-02-04T00:41:47;5.10;;;0.77;;
1296;SDS011;641;48.492;9.184;2023-02-04T00:44:13;5.00;;;0.60;;
1296;SDS011;641;48.492;9.184;2023-02-04T00:46:39;5.30;;;0.87;;
1296;SDS011;641;48.492;9.184;2023-02-04T00:49:06;5.10;;;0.60;;
1296;SDS011;641;48.492;9.184;2023-02-04T00:51:35;5.40;;;0.63;;
1296;SDS011;641;48.492;9.184;2023-02-04T00:54:04;5.80;;;1.13;;
1296;SDS011;641;48.492;9.184;2023-02-04T00:56:30;5.30;;;0.70;;
1296;SDS011;641;48.492;9.184;2023-02-04T00:58:56;5.07;;;0.60;;
1296;SDS011;641;48.492;9.184;2023-02-04T01:01:21;5.37;;;0.70;;
1296;SDS011;641;48.492;9.184;2023-02-04T01:03:47;6.07;;;0.80;;
1296;SDS011;641;48.492;9.184;2023-02-04T01:06:12;5.83;;;1.00;;
1296;SDS011;641;48.492;9.184;2023-02-04T01:08:38;5.50;;;0.97;;
1296;SDS011;641;48.492;9.184;2023-02-04T01:11:03;6.97;;;1.50;;
1296;SDS011;641;48.492;9.184;2023-02-04T01:13:29;5.47;;;0.90;;
1296;SDS011;641;48.492;9.184;2023-02-04T01:15:55;5.40;;;0.90;;
1296;SDS011;641;48.492;9.184;2023-02-04T01:18:20;5.80;;;1.13;;
1296;SDS011;641;48.492;9.184;2023-02-04T01:20:46;5.20;;;0.80;;
1296;SDS011;641;48.492;9.184;2023-02-04T01:23:11;6.60;;;1.20;;
1296;SDS011;641;48.492;9.184;2023-02-04T01:25:37;5.83;;;1.00;;
1296;SDS011;641;48.492;9.184;2023-02-04T01:28:03;6.27;;;0.80;;
1296;SDS011;641;48.492;9.184;2023-02-04T01:30:28;5.50;;;1.00;;
1296;SDS011;641;48.492;9.184;2023-02-04T01:32:54;5.93;;;1.20;;
1296;SDS011;641;48.492;9.184;2023-02-04T01:35:19;8.13;;;0.87;;
1296;SDS011;641;48.492;9.184;2023-02-04T01:37:45;5.10;;;0.70;;
1296;SDS011;641;48.492;9.184;2023-02-04T01:40:11;5.70;;;0.90;;
1296;SDS011;641;48.492;9.184;2023-02-04T01:42:36;5.43;;;0.90;;
1296;SDS011;641;48.492;9.184;2023-02-04T01:45:02;5.50;;;1.00;;
1296;SDS011;641;48.492;9.184;2023-02-04T01:47:30;5.30;;;0.90;;
1296;SDS011;641;48.492;9.184;2023-02-04T01:49:56;5.37;;;0.90;;
1296;SDS011;641;48.492;9.184;2023-02-04T01:52:22;6.20;;;0.97;;
1296;SDS011;641;48.492;9.184;2023-02-04T01:54:48;6.60;;;1.20;;
1296;SDS011;641;48.492;9.184;2023-02-04T01:57:15;6.80;;;1.27;;
1296;SDS011;641;48.492;9.184;2023-02-04T01:59:44;5.83;;;1.03;;
1296;SDS011;641;48.492;9.184;2023-02-04T02:05:02;6.03;;;1.23;;
1296;SDS011;641;48.492;9.184;2023-02-04T02:07:28;6.47;;;1.43;;
1296;SDS011;641;48.492;9.184;2023-02-04T02:09:54;7.90;;;1.90;;
1296;SDS011;641;48.492;9.184;2023-02-04T02:12:19;5.80;;;1.30;;
1296;SDS011;641;48.492;9.184;2023-02-04T02:14:45;7.30;;;1.00;;
1296;SDS011;641;48.492;9.184;2023-02-04T02:17:11;5.80;;;1.20;;
1296;SDS011;641;48.492;9.184;2023-02-04T02:19:36;6.20;;;1.40;;
1296;SDS011;641;48.492;9.184;2023-02-04T02:22:04;8.77;;;1.70;;
1296;SDS011;641;48.492;9.184;2023-02-04T02:24:37;6.50;;;1.90;;
1296;SDS011;641;48.492;9.184;2023-02-04T02:27:04;8.30;;;2.13;;
1296;SDS011;641;48.492;9.184;2023-02-04T02:29:32;6.20;;;1.40;;
1296;SDS011;641;48.492;9.184;2023-02-04T02:31:58;6.00;;;1.47;;
1296;SDS011;641;48.492;9.184;2023-02-04T02:34:25;6.90;;;2.07;;
1296;SDS011;641;48.492;9.184;2023-02-04T02:36:52;6.77;;;2.10;;
1296;SDS011;641;48.492;9.184;2023-02-04T02:39:18;6.60;;;1.70;;
1296;SDS011;641;48.492;9.184;2023-02-04T02:41:44;6.50;;;1.50;;
1296;SDS011;641;48.492;9.184;2023-02-04T02:44:10;8.07;;;2.20;;
1296;SDS011;641;48.492;9.184;2023-02-04T02:46:37;7.43;;;2.27;;
1296;SDS011;641;48.492;9.184;2023-02-04T02:49:03;8.03;;;2.27;;
1296;SDS011;641;48.492;9.184;2023-02-04T02:51:30;8.20;;;1.90;;
1296;SDS011;641;48.492;9.184;2023-02-04T02:53:55;6.83;;;1.70;;
1296;SDS011;641;48.492;9.184;2023-02-04T02:56:21;6.47;;;1.63;;
1296;SDS011;641;48.492;9.184;2023-02-04T02:58:47;6.90;;;1.77;;
1296;SDS011;641;48.492;9.184;2023-02-04T03:01:13;5.87;;;1.30;;
1296;SDS011;641;48.492;9.184;2023-02-04T03:03:44;7.47;;;1.70;;
1296;SDS011;641;48.492;9.184;2023-02-04T03:06:21;5.60;;;1.20;;
1296;SDS011;641;48.492;9.184;2023-02-04T03:08:49;6.43;;;1.70;;
1296;SDS011;641;48.492;9.184;2023-02-04T03:11:19;5.93;;;1.50;;
1296;SDS011;641;48.492;9.184;2023-02-04T03:13:44;6.97;;;1.43;;
1296;SDS011;641;48.492;9.184;2023-02-04T03:16:10;6.23;;;1.30;;
1296;SDS011;641;48.492;9.184;2023-02-04T03:18:36;6.83;;;1.73;;
1296;SDS011;641;48.492;9.184;2023-02-04T03:21:03;6.07;;;1.57;;
1296;SDS011;641;48.492;9.184;2023-02-04T03:23:31;5.83;;;1.20;;
1296;SDS011;641;48.492;9.184;2023-02-04T03:25:58;6.50;;;1.40;;
1296;SDS011;641;48.492;9.184;2023-02-04T03:28:24;6.00;;;1.53;;
1296;SDS011;641;48.492;9.184;2023-02-04T03:30:49;15.40;;;2.27;;
1296;SDS011;641;48.492;9.184;2023-02-04T03:33:19;6.00;;;1.50;;
1296;SDS011;641;48.492;9.184;2023-02-04T03:35:50;5.70;;;1.10;;
1296;SDS011;641;48.492;9.184;2023-02-04T03:38:17;7.57;;;1.40;;
1296;SDS011;641;48.492;9.184;2023-02-04T03:40:43;6.47;;;1.20;;
1296;SDS011;641;48.492;9.184;2023-02-04T03:43:09;5.97;;;1.07;;
1296;SDS011;641;48.492;9.184;2023-02-04T03:45:34;5.90;;;1.20;;
1296;SDS011;641;48.492;9.184;2023-02-04T03:48:00;5.93;;;1.17;;
1296;SDS011;641;48.492;9.184;2023-02-04T03:50:26;5.70;;;1.20;;
1296;SDS011;641;48.492;9.184;2023-02-04T03:52:51;5.90;;;1.20;;
1296;SDS011;641;48.492;9.184;2023-02-04T03:55:17;6.50;;;1.30;;
1296;SDS011;641;48.492;9.184;2023-02-04T03:57:43;7.73;;;1.43;;
1296;SDS011;641;48.492;9.184;2023-02-04T04:00:09;7.67;;;1.70;;
1296;SDS011;641;48.492;9.184;2023-02-04T04:02:35;7.43;;;1.40;;
1296;SDS011;641;48.492;9.184;2023-02-04T04:05:01;9.20;;;1.63;;
1296;SDS011;641;48.492;9.184;2023-02-04T04:07:27;10.47;;;1.93;;
1296;SDS011;641;48.492;9.184;2023-02-04T04:09:53;8.20;;;2.90;;
1296;SDS011;641;48.492;9.184;2023-02-04T04:12:18;9.57;;;2.07;;
1296;SDS011;641;48.492;9.184;2023-02-04T04:14:44;7.23;;;2.10;;
1296;SDS011;641;48.492;9.184;2023-02-04T04:17:09;9.17;;;2.33;;
1296;SDS011;641;48.492;9.184;2023-02-04T04:19:35;7.17;;;2.47;;
1296;SDS011;641;48.492;9.184;2023-02-04T04:22:00;9.03;;;2.30;;
1296;SDS011;641;48.492;9.184;2023-02-04T04:24:26;10.57;;;4.47;;
1296;SDS011;641;48.492;9.184;2023-02-04T04:26:52;11.07;;;5.03;;
1296;SDS011;641;48.492;9.184;2023-02-04T04:29:17;9.93;;;4.60;;
1296;SDS011;641;48.492;9.184;2023-02-04T04:31:43;9.87;;;3.90;;
1296;SDS011;641;48.492;9.184;2023-02-04T04:34:09;8.10;;;2.37;;
1296;SDS011;641;48.492;9.184;2023-02-04T04:36:35;7.07;;;2.23;;
1296;SDS011;641;48.492;9.184;2023-02-04T04:39:00;8.83;;;2.53;;
1296;SDS011;641;48.492;9.184;2023-02-04T04:41:27;11.37;;;3.03;;
1296;SDS011;641;48.492;9.184;2023-02-04T04:43:52;7.10;;;2.40;;
1296;SDS011;641;48.492;9.184;2023-02-04T04:46:18;7.63;;;1.90;;
1296;SDS011;641;48.492;9.184;2023-02-04T04:48:43;9.43;;;1.23;;
1296;SDS011;641;48.492;9.184;2023-02-04T04:51:09;7.43;;;1.53;;
1296;SDS011;641;48.492;9.184;2023-02-04T04:53:35;9.00;;;1.60;;
1296;SDS011;641;48.492;9.184;2023-02-04T04:56:00;6.60;;;1.50;;
1296;SDS011;641;48.492;9.184;2023-02-04T04:58:26;7.10;;;1.60;;
1296;SDS011;641;48.492;9.184;2023-02-04T05:00:51;9.07;;;1.77;;
1296;SDS011;641;48.492;9.184;2023-02-04T05:03:17;8.53;;;1.40;;
1296;SDS011;641;48.492;9.184;2023-02-04T05:05:43;7.23;;;1.40;;
1296;SDS011;641;48.492;9.184;2023-02-04T05:08:08;7.70;;;1.47;;
1296;SDS011;641;48.492;9.184;2023-02-04T05:10:37;5.90;;;1.40;;
1296;SDS011;641;48.492;9.184;2023-02-04T05:13:04;10.47;;;1.80;;
1296;SDS011;641;48.492;9.184;2023-02-04T05:15:29;6.57;;;1.60;;
1296;SDS011;641;48.492;9.184;2023-02-04T05:17:55;6.80;;;1.37;;
1296;SDS011;641;48.492;9.184;2023-02-04T05:20:22;8.10;;;1.30;;
1296;SDS011;641;48.492;9.184;2023-02-04T05:22:48;6.30;;;1.40;;
1296;SDS011;641;48.492;9.184;2023-02-04T05:25:14;5.60;;;1.20;;
1296;SDS011;641;48.492;9.184;2023-02-04T05:27:41;7.30;;;1.50;;
1296;SDS011;641;48.492;9.184;2023-02-04T05:30:08;6.20;;;1.50;;
1296;SDS011;641;48.492;9.184;2023-02-04T05:32:35;6.10;;;1.23;;
1296;SDS011;641;48.492;9.184;2023-02-04T05:35:01;7.20;;;1.37;;
1296;SDS011;641;48.492;9.184;2023-02-04T05:37:27;7.00;;;1.10;;
1296;SDS011;641;48.492;9.184;2023-02-04T05:39:52;7.87;;;1.23;;
1296;SDS011;641;48.492;9.184;2023-02-04T05:42:18;5.70;;;1.00;;
1296;SDS011;641;48.492;9.184;2023-02-04T05:44:44;6.50;;;1.30;;
1296;SDS011;641;48.492;9.184;2023-02-04T05:47:09;7.47;;;1.37;;
1296;SDS011;641;48.492;9.184;2023-02-04T05:49:35;6.70;;;1.47;;
1296;SDS011;641;48.492;9.184;2023-02-04T05:52:00;5.90;;;1.20;;
1296;SDS011;641;48.492;9.184;2023-02-04T05:54:26;6.20;;;1.30;;
1296;SDS011;641;48.492;9.184;2023-02-04T05:56:52;7.40;;;1.37;;
1296;SDS011;641;48.492;9.184;2023-02-04T05:59:18;6.70;;;1.20;;
1296;SDS011;641;48.492;9.184;2023-02-04T06:01:43;6.90;;;1.23;;
1296;SDS011;641;48.492;9.184;2023-02-04T06:04:09;9.33;;;1.47;;
1296;SDS011;641;48.492;9.184;2023-02-04T06:06:35;6.97;;;1.87;;
1296;SDS011;641;48.492;9.184;2023-02-04T06:09:00;10.77;;;2.00;;
1296;SDS011;641;48.492;9.184;2023-02-04T06:11:26;6.43;;;1.60;;
1296;SDS011;641;48.492;9.184;2023-02-04T06:13:52;9.33;;;1.83;;
1296;SDS011;641;48.492;9.184;2023-02-04T06:16:17;6.50;;;1.43;;
1296;SDS011;641;48.492;9.184;2023-02-04T06:18:43;7.00;;;2.50;;
1296;SDS011;641;48.492;9.184;2023-02-04T06:21:08;8.50;;;1.73;;
1296;SDS011;641;48.492;9.184;2023-02-04T06:23:34;7.43;;;1.83;;
1296;SDS011;641;48.492;9.184;2023-02-04T06:26:02;7.13;;;2.53;;
1296;SDS011;641;48.492;9.184;2023-02-04T06:28:28;7.33;;;2.90;;
1296;SDS011;641;48.492;9.184;2023-02-04T06:30:54;8.10;;;2.00;;
1296;SDS011;641;48.492;9.184;2023-02-04T06:33:19;10.03;;;2.03;;
1296;SDS011;641;48.492;9.184;2023-02-04T06:35:46;9.70;;;1.70;;
1296;SDS011;641;48.492;9.184;2023-02-04T06:38:12;6.00;;;1.53;;
1296;SDS011;641;48.492;9.184;2023-02-04T06:40:37;9.80;;;3.13;;
1296;SDS011;641;48.492;9.184;2023-02-04T06:43:03;7.63;;;2.07;;
1296;SDS011;641;48.492;9.184;2023-02-04T06:45:29;10.10;;;2.30;;
1296;SDS011;641;48.492;9.184;2023-02-04T06:47:54;8.20;;;2.40;;
1296;SDS011;641;48.492;9.184;2023-02-04T06:50:20;10.90;;;3.00;;
1296;SDS011;641;48.492;9.184;2023-02-04T06:52:45;11.13;;;3.13;;
1296;SDS011;641;48.492;9.184;2023-02-04T06:55:12;8.10;;;2.50;;
1296;SDS011;641;48.492;9.184;2023-02-04T06:57:38;9.47;;;3.13;;
1296;SDS011;641;48.492;9.184;2023-02-04T07:00:04;9.20;;;2.60;;
1296;SDS011;641;48.492;9.184;2023-02-04T07:02:31;9.23;;;2.40;;
1296;SDS011;641;48.492;9.184;2023-02-04T07:04:56;11.27;;;2.90;;
1296;SDS011;641;48.492;9.184;2023-02-04T07:07:24;7.30;;;2.37;;
1296;SDS011;641;48.492;9.184;2023-02-04T07:09:50;9.27;;;2.40;;
1296;SDS011;641;48.492;9.184;2023-02-04T07:12:15;9.07;;;3.10;;
1296;SDS011;641;48.492;9.184;2023-02-04T07:14:41;8.70;;;2.47;;
1296;SDS011;641;48.492;9.184;2023-02-04T07:17:06;10.33;;;2.13;;
1296;SDS011;641;48.492;9.184;2023-02-04T07:19:32;9.27;;;2.87;;
1296;SDS011;641;48.492;9.184;2023-02-04T07:21:59;9.83;;;2.03;;
1296;SDS011;641;48.492;9.184;2023-02-04T07:24:24;8.00;;;2.40;;
1296;SDS011;641;48.492;9.184;2023-02-04T07:26:50;12.10;;;2.87;;
1296;SDS011;641;48.492;9.184;2023-02-04T07:29:16;7.30;;;2.40;;
1296;SDS011;641;48.492;9.184;2023-02-04T07:31:43;10.80;;;2.70;;
1296;SDS011;641;48.492;9.184;2023-02-04T07:34:10;9.30;;;2.40;;
1296;SDS011;641;48.492;9.184;2023-02-04T07:36:37;10.17;;;2.77;;
1296;SDS011;641;48.492;9.184;2023-02-04T07:39:03;8.90;;;2.50;;
1296;SDS011;641;48.492;9.184;2023-02-04T07:41:28;8.27;;;2.47;;
1296;SDS011;641;48.492;9.184;2023-02-04T07:43:54;9.63;;;2.83;;
1296;SDS011;641;48.492;9.184;2023-02-04T07:46:19;10.73;;;3.23;;
1296;SDS011;641;48.492;9.184;2023-02-04T07:48:45;8.83;;;3.10;;
1296;SDS011;641;48.492;9.184;2023-02-04T07:51:11;11.30;;;4.03;;
1296;SDS011;641;48.492;9.184;2023-02-04T07:53:36;10.70;;;3.10;;
1296;SDS011;641;48.492;9.184;2023-02-04T07:56:02;14.20;;;4.20;;
1296;SDS011;641;48.492;9.184;2023-02-04T07:58:28;12.63;;;3.50;;
1296;SDS011;641;48.492;9.184;2023-02-04T08:00:53;15.10;;;4.17;;
1296;SDS011;641;48.492;9.184;2023-02-04T08:03:19;10.20;;;3.90;;
1296;SDS011;641;48.492;9.184;2023-02-04T08:05:44;13.30;;;5.53;;
1296;SDS011;641;48.492;9.184;2023-02-04T08:08:10;13.63;;;4.53;;
1296;SDS011;641;48.492;9.184;2023-02-04T08:10:36;15.23;;;5.53;;
1296;SDS011;641;48.492;9.184;2023-02-04T08:13:02;16.13;;;5.53;;
1296;SDS011;641;48.492;9.184;2023-02-04T08:15:27;12.57;;;4.93;;
1296;SDS011;641;48.492;9.184;2023-02-04T08:17:53;13.60;;;4.90;;
1296;SDS011;641;48.492;9.184;2023-02-04T08:20:19;15.60;;;6.53;;
1296;SDS011;641;48.492;9.184;2023-02-04T08:22:44;17.97;;;5.43;;
1296;SDS011;641;48.492;9.184;2023-02-04T08:25:10;12.40;;;4.73;;
1296;SDS011;641;48.492;9.184;2023-02-04T08:27:36;17.40;;;5.53;;
1296;SDS011;641;48.492;9.184;2023-02-04T08:30:03;15.67;;;6.37;;
1296;SDS011;641;48.492;9.184;2023-02-04T08:32:29;15.43;;;5.67;;
1296;SDS011;641;48.492;9.184;2023-02-04T08:34:55;11.93;;;5.27;;
1296;SDS011;641;48.492;9.184;2023-02-04T08:37:21;13.30;;;5.13;;
1296;SDS011;641;48.492;9.184;2023-02-04T08:39:47;15.93;;;6.40;;
1296;SDS011;641;48.492;9.184;2023-02-04T08:42:13;15.17;;;5.30;;
1296;SDS011;641;48.492;9.184;2023-02-04T08:44:39;14.50;;;5.00;;
1296;SDS011;641;48.492;9.184;2023-02-04T08:47:05;14.60;;;4.83;;
1296;SDS011;641;48.492;9.184;2023-02-04T08:49:31;20.00;;;5.33;;
1296;SDS011;641;48.492;9.184;2023-02-04T08:51:57;16.07;;;5.40;;
1296;SDS011;641;48.492;9.184;2023-02-04T08:54:22;17.97;;;6.07;;
1296;SDS011;641;48.492;9.184;2023-02-04T08:56:50;20.40;;;5.80;;
1296;SDS011;641;48.492;9.184;2023-02-04T08:59:15;16.13;;;5.90;;
1296;SDS011;641;48.492;9.184;2023-02-04T09:01:41;17.73;;;6.33;;
1296;SDS011;641;48.492;9.184;2023-02-04T09:04:07;17.10;;;6.93;;
1296;SDS011;641;48.492;9.184;2023-02-04T09:06:33;17.33;;;4.87;;
1296;SDS011;641;48.492;9.184;2023-02-04T09:08:58;15.57;;;5.27;;
1296;SDS011;641;48.492;9.184;2023-02-04T09:11:24;13.07;;;4.67;;
1296;SDS011;641;48.492;9.184;2023-02-04T09:13:50;15.80;;;5.57;;
1296;SDS011;641;48.492;9.184;2023-02-04T09:16:15;17.77;;;5.73;;
1296;SDS011;641;48.492;9.184;2023-02-04T09:18:42;21.70;;;5.83;;
1296;SDS011;641;48.492;9.184;2023-02-04T09:21:08;18.70;;;5.70;;
1296;SDS011;641;48.492;9.184;2023-02-04T09:23:33;16.27;;;4.97;;
1296;SDS011;641;48.492;9.184;2023-02-04T09:25:59;12.33;;;4.33;;
1296;SDS011;641;48.492;9.184;2023-02-04T09:28:25;14.23;;;5.60;;
1296;SDS011;641;48.492;9.184;2023-02-04T09:30:51;12.17;;;5.07;;
1296;SDS011;641;48.492;9.184;2023-02-04T09:33:17;19.60;;;7.90;;
1296;SDS011;641;48.492;9.184;2023-02-04T09:35:43;20.13;;;5.77;;
1296;SDS011;641;48.492;9.184;2023-02-04T09:38:09;15.20;;;5.70;;
1296;SDS011;641;48.492;9.184;2023-02-04T09:40:45;19.30;;;5.17;;
1296;SDS011;641;48.492;9.184;2023-02-04T09:43:16;19.60;;;5.67;;
1296;SDS011;641;48.492;9.184;2023-02-04T09:45:46;16.40;;;5.50;;
1296;SDS011;641;48.492;9.184;2023-02-04T09:48:13;18.70;;;5.10;;
1296;SDS011;641;48.492;9.184;2023-02-04T09:50:38;18.00;;;5.23;;
1296;SDS011;641;48.492;9.184;2023-02-04T09:53:04;25.70;;;5.00;;
1296;SDS011;641;48.492;9.184;2023-02-04T09:55:32;18.03;;;3.80;;
1296;SDS011;641;48.492;9.184;2023-02-04T09:58:00;18.17;;;4.43;;
1296;SDS011;641;48.492;9.184;2023-02-04T10:00:28;13.60;;;4.10;;
1296;SDS011;641;48.492;9.184;2023-02-04T10:02:56;10.60;;;3.93;;
1296;SDS011;641;48.492;9.184;2023-02-04T10:05:26;18.23;;;5.20;;
1296;SDS011;641;48.492;9.184;2023-02-04T10:07:53;16.47;;;4.80;;
1296;SDS011;641;48.492;9.184;2023-02-04T10:10:20;15.30;;;4.30;;
1296;SDS011;641;48.492;9.184;2023-02-04T10:12:49;19.40;;;4.17;;
1296;SDS011;641;48.492;9.184;2023-02-04T10:15:17;12.20;;;3.57;;
1296;SDS011;641;48.492;9.184;2023-02-04T10:17:51;14.10;;;3.40;;
1296;SDS011;641;48.492;9.184;2023-02-04T10:20:22;16.70;;;3.97;;
1296;SDS011;641;48.492;9.184;2023-02-04T10:22:50;12.37;;;3.70;;
1296;SDS011;641;48.492;9.184;2023-02-04T10:25:19;14.30;;;4.13;;
1296;SDS011;641;48.492;9.184;2023-02-04T10:27:51;13.87;;;3.80;;
1296;SDS011;641;48.492;9.184;2023-02-04T10:30:22;15.13;;;3.57;;
1296;SDS011;641;48.492;9.184;2023-02-04T10:32:50;17.90;;;4.80;;
1296;SDS011;641;48.492;9.184;2023-02-04T10:35:17;14.40;;;4.10;;
1296;SDS011;641;48.492;9.184;2023-02-04T10:37:44;20.00;;;4.43;;
1296;SDS011;641;48.492;9.184;2023-02-04T10:40:26;13.47;;;3.90;;
1296;SDS011;641;48.492;9.184;2023-02-04T10:42:54;12.70;;;3.53;;
1296;SDS011;641;48.492;9.184;2023-02-04T10:45:28;13.63;;;3.57;;
1296;SDS011;641;48.492;9.184;2023-02-04T10:47:55;20.40;;;2.67;;
1296;SDS011;641;48.492;9.184;2023-02-04T10:50:24;13.57;;;3.90;;
1296;SDS011;641;48.492;9.184;2023-02-04T10:52:52;15.10;;;3.60;;
1296;SDS011;641;48.492;9.184;2023-02-04T10:55:39;17.53;;;4.63;;
1296;SDS011;641;48.492;9.184;2023-02-04T10:58:05;19.40;;;3.00;;
1296;SDS011;641;48.492;9.184;2023-02-04T11:00:40;18.07;;;2.83;;
1296;SDS011;641;48.492;9.184;2023-02-04T11:03:18;10.27;;;2.90;;
1296;SDS011;641;48.492;9.184;2023-02-04T11:05:49;14.47;;;2.30;;
1296;SDS011;641;48.492;9.184;2023-02-04T11:08:25;12.93;;;2.70;;
1296;SDS011;641;48.492;9.184;2023-02-04T11:10:57;16.83;;;3.10;;
1296;SDS011;641;48.492;9.184;2023-02-04T11:16:45;11.10;;;2.80;;
1296;SDS011;641;48.492;9.184;2023-02-04T11:19:30;15.33;;;4.03;;
1296;SDS011;641;48.492;9.184;2023-02-04T11:22:19;12.30;;;2.67;;
1296;SDS011;641;48.492;9.184;2023-02-04T11:24:57;12.73;;;2.60;;
1296;SDS011;641;48.492;9.184;2023-02-04T11:27:35;18.10;;;3.10;;
1296;SDS011;641;48.492;9.184;2023-02-04T11:30:03;16.40;;;3.23;;
1296;SDS011;641;48.492;9.184;2023-02-04T11:43:01;12.57;;;2.37;;
1296;SDS011;641;48.492;9.184;2023-02-04T12:30:00;21.17;;;3.50;;
1296;SDS011;641;48.492;9.184;2023-02-04T12:36:18;10.27;;;2.17;;
1296;SDS011;641;48.492;9.184;2023-02-04T12:42:59;19.63;;;3.07;;
1296;SDS011;641;48.492;9.184;2023-02-04T12:49:10;17.17;;;3.07;;
1296;SDS011;641;48.492;9.184;2023-02-04T12:51:48;14.20;;;3.00;;
1296;SDS011;641;48.492;9.184;2023-02-04T12:57:57;11.87;;;2.80;;
1296;SDS011;641;48.492;9.184;2023-02-04T13:00:48;14.17;;;2.87;;
1296;SDS011;641;48.492;9.184;2023-02-04T13:27:35;14.03;;;2.93;;
1296;SDS011;641;48.492;9.184;2023-02-04T13:30:01;13.67;;;2.80;;
1296;SDS011;641;48.492;9.184;2023-02-04T13:32:28;13.70;;;3.33;;
1296;SDS011;641;48.492;9.184;2023-02-04T13:34:54;13.40;;;3.50;;
1296;SDS011;641;48.492;9.184;2023-02-04T13:37:19;15.47;;;2.83;;
1296;SDS011;641;48.492;9.184;2023-02-04T13:39:45;14.60;;;4.20;;
1296;SDS011;641;48.492;9.184;2023-02-04T13:42:10;17.70;;;4.10;;
1296;SDS011;641;48.492;9.184;2023-02-04T13:44:36;16.07;;;3.23;;
1296;SDS011;641;48.492;9.184;2023-02-04T13:47:02;19.17;;;2.93;;
1296;SDS011;641;48.492;9.184;2023-02-04T13:49:27;14.13;;;3.40;;
1296;SDS011;641;48.492;9.184;2023-02-04T13:51:53;12.00;;;2.87;;
1296;SDS011;641;48.492;9.184;2023-02-04T13:54:18;14.03;;;3.50;;
1296;SDS011;641;48.492;9.184;2023-02-04T13:56:44;20.90;;;2.77;;
1296;SDS011;641;48.492;9.184;2023-02-04T13:59:09;21.30;;;3.60;;
1296;SDS011;641;48.492;9.184;2023-02-04T14:01:35;16.20;;;3.40;;
1296;SDS011;641;48.492;9.184;2023-02-04T14:04:01;20.73;;;4.23;;
1296;SDS011;641;48.492;9.184;2023-02-04T14:06:26;18.73;;;3.60;;
1296;SDS011;641;48.492;9.184;2023-02-04T14:09:00;16.40;;;3.23;;
1296;SDS011;641;48.492;9.184;2023-02-04T14:11:28;13.57;;;3.60;;
1296;SDS011;641;48.492;9.184;2023-02-04T14:13:53;11.07;;;2.67;;
1296;SDS011;641;48.492;9.184;2023-02-04T14:16:19;12.50;;;3.00;;
1296;SDS011;641;48.492;9.184;2023-02-04T14:18:45;16.70;;;2.80;;
1296;SDS011;641;48.492;9.184;2023-02-04T14:21:11;13.17;;;3.03;;
1296;SDS011;641;48.492;9.184;2023-02-04T14:23:37;16.07;;;3.17;;
1296;SDS011;641;48.492;9.184;2023-02-04T14:26:02;17.03;;;4.00;;
1296;SDS011;641;48.492;9.184;2023-02-04T14:28:28;15.30;;;3.83;;
1296;SDS011;641;48.492;9.184;2023-02-04T14:30:54;18.27;;;4.40;;
1296;SDS011;641;48.492;9.184;2023-02-04T14:33:19;15.40;;;3.07;;
1296;SDS011;641;48.492;9.184;2023-02-04T14:35:45;20.40;;;3.40;;
1296;SDS011;641;48.492;9.184;2023-02-04T14:38:11;12.60;;;3.00;;
1296;SDS011;641;48.492;9.184;2023-02-04T14:40:40;13.87;;;2.80;;
1296;SDS011;641;48.492;9.184;2023-02-04T14:43:06;19.67;;;4.23;;
1296;SDS011;641;48.492;9.184;2023-02-04T14:45:34;14.23;;;3.80;;
1296;SDS011;641;48.492;9.184;2023-02-04T14:48:01;19.60;;;4.83;;
1296;SDS011;641;48.492;9.184;2023-02-04T14:50:26;13.30;;;3.73;;
1296;SDS011;641;48.492;9.184;2023-02-04T14:52:54;15.27;;;3.30;;
1296;SDS011;641;48.492;9.184;2023-02-04T14:55:20;20.77;;;3.87;;
1296;SDS011;641;48.492;9.184;2023-02-04T14:57:50;16.50;;;4.00;;
1296;SDS011;641;48.492;9.184;2023-02-04T15:00:16;17.23;;;2.67;;
1296;SDS011;641;48.492;9.184;2023-02-04T15:02:43;20.67;;;3.13;;
1296;SDS011;641;48.492;9.184;2023-02-04T15:05:10;16.43;;;2.83;;
1296;SDS011;641;48.492;9.184;2023-02-04T15:07:36;13.43;;;4.53;;
1296;SDS011;641;48.492;9.184;2023-02-04T15:10:02;16.50;;;3.37;;
1296;SDS011;641;48.492;9.184;2023-02-04T15:12:27;16.17;;;3.50;;
1296;SDS011;641;48.492;9.184;2023-02-04T15:14:53;17.70;;;3.20;;
1296;SDS011;641;48.492;9.184;2023-02-04T15:17:19;16.30;;;3.77;;
1296;SDS011;641;48.492;9.184;2023-02-04T15:19:44;13.70;;;2.80;;
1296;SDS011;641;48.492;9.184;2023-02-04T15:22:10;12.20;;;3.00;;
1296;SDS011;641;48.492;9.184;2023-02-04T15:24:36;14.23;;;2.97;;
1296;SDS011;641;48.492;9.184;2023-02-04T15:27:03;15.73;;;2.30;;
1296;SDS011;641;48.492;9.184;2023-02-04T15:29:28;19.83;;;6.00;;
1296;SDS011;641;48.492;9.184;2023-02-04T15:31:55;16.83;;;2.80;;
1296;SDS011;641;48.492;9.184;2023-02-04T15:34:20;15.33;;;3.13;;
1296;SDS011;641;48.492;9.184;2023-02-04T15:36:46;20.40;;;3.27;;
1296;SDS011;641;48.492;9.184;2023-02-04T15:39:12;12.53;;;2.30;;
1296;SDS011;641;48.492;9.184;2023-02-04T15:41:38;12.17;;;2.30;;
1296;SDS011;641;48.492;9.184;2023-02-04T15:44:03;16.70;;;2.77;;
1296;SDS011;641;48.492;9.184;2023-02-04T15:46:30;15.10;;;2.90;;
1296;SDS011;641;48.492;9.184;2023-02-04T15:48:56;17.40;;;3.30;;
1296;SDS011;641;48.492;9.184;2023-02-04T15:51:21;14.43;;;2.87;;
1296;SDS011;641;48.492;9.184;2023-02-04T15:53:47;14.37;;;2.57;;
1296;SDS011;641;48.492;9.184;2023-02-04T15:56:12;28.63;;;3.43;;
1296;SDS011;641;48.492;9.184;2023-02-04T15:58:38;14.03;;;2.93;;
1296;SDS011;641;48.492;9.184;2023-02-04T16:01:04;12.80;;;2.90;;
1296;SDS011;641;48.492;9.184;2023-02-04T16:03:29;18.13;;;4.23;;
1296;SDS011;641;48.492;9.184;2023-02-04T16:05:55;10.67;;;3.30;;
1296;SDS011;641;48.492;9.184;2023-02-04T16:08:21;13.60;;;3.30;;
1296;SDS011;641;48.492;9.184;2023-02-04T16:10:46;19.60;;;3.47;;
1296;SDS011;641;48.492;9.184;2023-02-04T16:13:12;16.60;;;4.07;;
1296;SDS011;641;48.492;9.184;2023-02-04T16:15:38;19.60;;;4.47;;
1296;SDS011;641;48.492;9.184;2023-02-04T16:18:04;19.80;;;4.50;;
1296;SDS011;641;48.492;9.184;2023-02-04T16:20:29;17.40;;;5.40;;
1296;SDS011;641;48.492;9.184;2023-02-04T16:22:55;22.97;;;4.33;;
1296;SDS011;641;48.492;9.184;2023-02-04T16:25:20;11.73;;;3.60;;
1296;SDS011;641;48.492;9.184;2023-02-04T16:27:47;18.67;;;4.57;;
1296;SDS011;641;48.492;9.184;2023-02-04T16:30:13;16.30;;;4.23;;
1296;SDS011;641;48.492;9.184;2023-02-04T16:32:39;17.80;;;4.60;;
1296;SDS011;641;48.492;9.184;2023-02-04T16:37:51;22.33;;;4.67;;
1296;SDS011;641;48.492;9.184;2023-02-04T16:40:17;14.07;;;4.07;;
1296;SDS011;641;48.492;9.184;2023-02-04T16:42:43;16.27;;;5.43;;
1296;SDS011;641;48.492;9.184;2023-02-04T16:45:09;13.50;;;3.63;;
1296;SDS011;641;48.492;9.184;2023-02-04T16:47:34;16.90;;;4.20;;
1296;SDS011;641;48.492;9.184;2023-02-04T16:50:00;19.30;;;5.70;;
1296;SDS011;641;48.492;9.184;2023-02-04T16:52:26;16.63;;;5.23;;
1296;SDS011;641;48.492;9.184;2023-02-04T16:54:52;12.53;;;4.30;;
1296;SDS011;641;48.492;9.184;2023-02-04T16:57:18;20.00;;;7.03;;
1296;SDS011;641;48.492;9.184;2023-02-04T16:59:43;19.27;;;6.30;;
1296;SDS011;641;48.492;9.184;2023-02-04T17:02:09;17.90;;;5.33;;